sensor_id;sensor_type;location;lat;lon;timestamp;P1;durP1;ratioP1;P2;durP2;ratioP2
49572;SDS011;35476;52.466;13.364;2022-12-18T00:00:41;31.98;;;15.32;;
49572;SDS011;35476;52.466;13.364;2022-12-18T00:03:07;34.85;;;16.88;;
49572;SDS011;35476;52.466;13.364;2022-12-18T00:05:32;31.02;;;16.15;;
49572;SDS011;35476;52.466;13.364;2022-12-18T00:07:57;30.50;;;14.20;;
49572;SDS011;35476;52.466;13.364;2022-12-18T00:10:23;34.90;;;16.50;;
49572;SDS011;35476;52.466;13.364;2022-12-18T00:12:48;42.15;;;17.30;;
49572;SDS011;35476;52.466;13.364;2022-12-18T00:15:13;42.00;;;17.50;;
49572;SDS011;35476;52.466;13.364;2022-12-18T00:17:38;39.85;;;17.75;;
49572;SDS011;35476;52.466;13.364;2022-12-18T00:20:03;40.08;;;18.55;;
49572;SDS011;35476;52.466;13.364;2022-12-18T00:22:29;48.33;;;17.23;;
49572;SDS011;35476;52.466;13.364;2022-12-18T00:24:54;57.75;;;17.20;;
49572;SDS011;35476;52.466;13.364;2022-12-18T00:27:19;46.47;;;18.13;;
49572;SDS011;35476;52.466;13.364;2022-12-18T00:29:44;35.57;;;16.53;;
49572;SDS011;35476;52.466;13.364;2022-12-18T00:32:10;40.67;;;17.55;;
49572;SDS011;35476;52.466;13.364;2022-12-18T00:34:35;38.90;;;17.48;;
49572;SDS011;35476;52.466;13.364;2022-12-18T00:37:00;45.83;;;17.20;;
49572;SDS011;35476;52.466;13.364;2022-12-18T00:39:25;39.45;;;15.68;;
49572;SDS011;35476;52.466;13.364;2022-12-18T00:41:50;35.20;;;17.02;;
49572;SDS011;35476;52.466;13.364;2022-12-18T00:44:34;39.47;;;16.30;;
49572;SDS011;35476;52.466;13.364;2022-12-18T00:46:59;41.75;;;16.60;;
49572;SDS011;35476;52.466;13.364;2022-12-18T00:49:25;37.00;;;16.17;;
49572;SDS011;35476;52.466;13.364;2022-12-18T00:51:50;38.72;;;18.48;;
49572;SDS011;35476;52.466;13.364;2022-12-18T00:54:15;40.42;;;18.30;;
49572;SDS011;35476;52.466;13.364;2022-12-18T00:56:41;43.13;;;19.00;;
49572;SDS011;35476;52.466;13.364;2022-12-18T00:59:06;42.95;;;18.77;;
49572;SDS011;35476;52.466;13.364;2022-12-18T01:01:32;42.35;;;18.77;;
49572;SDS011;35476;52.466;13.364;2022-12-18T01:03:57;38.55;;;18.52;;
49572;SDS011;35476;52.466;13.364;2022-12-18T01:06:22;39.90;;;18.92;;
49572;SDS011;35476;52.466;13.364;2022-12-18T01:08:48;38.17;;;17.73;;
49572;SDS011;35476;52.466;13.364;2022-12-18T01:11:15;44.85;;;17.98;;
49572;SDS011;35476;52.466;13.364;2022-12-18T01:13:40;36.45;;;18.40;;
49572;SDS011;35476;52.466;13.364;2022-12-18T01:16:06;40.75;;;18.20;;
49572;SDS011;35476;52.466;13.364;2022-12-18T01:18:31;41.55;;;17.92;;
49572;SDS011;35476;52.466;13.364;2022-12-18T01:20:56;41.20;;;16.45;;
49572;SDS011;35476;52.466;13.364;2022-12-18T01:23:22;43.45;;;17.77;;
49572;SDS011;35476;52.466;13.364;2022-12-18T01:25:47;45.58;;;18.33;;
49572;SDS011;35476;52.466;13.364;2022-12-18T01:28:12;48.00;;;17.80;;
49572;SDS011;35476;52.466;13.364;2022-12-18T01:30:37;43.25;;;20.25;;
49572;SDS011;35476;52.466;13.364;2022-12-18T01:33:04;45.60;;;19.63;;
49572;SDS011;35476;52.466;13.364;2022-12-18T01:35:29;47.78;;;18.23;;
49572;SDS011;35476;52.466;13.364;2022-12-18T01:37:54;54.70;;;22.75;;
49572;SDS011;35476;52.466;13.364;2022-12-18T01:40:20;47.08;;;20.42;;
49572;SDS011;35476;52.466;13.364;2022-12-18T01:42:49;45.33;;;17.98;;
49572;SDS011;35476;52.466;13.364;2022-12-18T01:47:56;42.63;;;17.70;;
49572;SDS011;35476;52.466;13.364;2022-12-18T01:50:32;42.13;;;18.45;;
49572;SDS011;35476;52.466;13.364;2022-12-18T01:53:20;39.65;;;17.73;;
49572;SDS011;35476;52.466;13.364;2022-12-18T01:55:51;45.60;;;19.20;;
49572;SDS011;35476;52.466;13.364;2022-12-18T01:58:17;44.42;;;18.80;;
49572;SDS011;35476;52.466;13.364;2022-12-18T02:00:43;46.25;;;21.15;;
49572;SDS011;35476;52.466;13.364;2022-12-18T02:03:08;47.70;;;19.45;;
49572;SDS011;35476;52.466;13.364;2022-12-18T02:08:35;39.17;;;17.55;;
49572;SDS011;35476;52.466;13.364;2022-12-18T02:16:57;37.38;;;16.65;;
49572;SDS011;35476;52.466;13.364;2022-12-18T02:22:06;38.83;;;18.02;;
49572;SDS011;35476;52.466;13.364;2022-12-18T02:24:35;38.15;;;16.38;;
49572;SDS011;35476;52.466;13.364;2022-12-18T02:27:07;35.63;;;16.70;;
49572;SDS011;35476;52.466;13.364;2022-12-18T02:29:48;44.08;;;17.30;;
49572;SDS011;35476;52.466;13.364;2022-12-18T02:32:16;45.70;;;19.27;;
49572;SDS011;35476;52.466;13.364;2022-12-18T02:34:42;40.67;;;16.98;;
49572;SDS011;35476;52.466;13.364;2022-12-18T02:37:09;46.40;;;18.40;;
49572;SDS011;35476;52.466;13.364;2022-12-18T02:39:36;38.25;;;15.68;;
49572;SDS011;35476;52.466;13.364;2022-12-18T02:42:02;41.17;;;17.08;;
49572;SDS011;35476;52.466;13.364;2022-12-18T02:44:32;36.08;;;15.57;;
49572;SDS011;35476;52.466;13.364;2022-12-18T02:46:57;41.60;;;18.85;;
49572;SDS011;35476;52.466;13.364;2022-12-18T02:51:55;43.77;;;18.27;;
49572;SDS011;35476;52.466;13.364;2022-12-18T02:56:50;45.80;;;17.58;;
49572;SDS011;35476;52.466;13.364;2022-12-18T02:59:21;44.15;;;16.98;;
49572;SDS011;35476;52.466;13.364;2022-12-18T03:04:20;35.55;;;16.20;;
49572;SDS011;35476;52.466;13.364;2022-12-18T03:06:49;39.42;;;16.45;;
49572;SDS011;35476;52.466;13.364;2022-12-18T03:09:21;44.33;;;17.42;;
49572;SDS011;35476;52.466;13.364;2022-12-18T03:11:56;38.85;;;17.48;;
49572;SDS011;35476;52.466;13.364;2022-12-18T03:14:41;38.50;;;17.58;;
49572;SDS011;35476;52.466;13.364;2022-12-18T03:17:08;49.80;;;19.60;;
49572;SDS011;35476;52.466;13.364;2022-12-18T03:19:37;42.35;;;18.30;;
49572;SDS011;35476;52.466;13.364;2022-12-18T03:22:04;49.70;;;18.58;;
49572;SDS011;35476;52.466;13.364;2022-12-18T03:24:30;43.55;;;18.80;;
49572;SDS011;35476;52.466;13.364;2022-12-18T03:27:00;48.00;;;20.17;;
49572;SDS011;35476;52.466;13.364;2022-12-18T03:30:00;40.03;;;17.92;;
49572;SDS011;35476;52.466;13.364;2022-12-18T03:32:30;50.33;;;21.80;;
49572;SDS011;35476;52.466;13.364;2022-12-18T03:34:58;48.92;;;20.90;;
49572;SDS011;35476;52.466;13.364;2022-12-18T03:37:25;51.40;;;20.08;;
49572;SDS011;35476;52.466;13.364;2022-12-18T03:39:51;59.10;;;22.30;;
49572;SDS011;35476;52.466;13.364;2022-12-18T03:47:39;59.53;;;25.20;;
49572;SDS011;35476;52.466;13.364;2022-12-18T03:54:59;61.40;;;25.43;;
49572;SDS011;35476;52.466;13.364;2022-12-18T03:57:27;59.53;;;22.02;;
49572;SDS011;35476;52.466;13.364;2022-12-18T04:00:07;62.08;;;23.23;;
49572;SDS011;35476;52.466;13.364;2022-12-18T04:02:33;58.92;;;24.08;;
49572;SDS011;35476;52.466;13.364;2022-12-18T04:05:00;52.03;;;21.95;;
49572;SDS011;35476;52.466;13.364;2022-12-18T04:07:26;60.97;;;24.63;;
49572;SDS011;35476;52.466;13.364;2022-12-18T04:09:53;60.38;;;24.33;;
49572;SDS011;35476;52.466;13.364;2022-12-18T04:12:20;69.63;;;25.83;;
49572;SDS011;35476;52.466;13.364;2022-12-18T04:14:45;74.18;;;28.73;;
49572;SDS011;35476;52.466;13.364;2022-12-18T04:17:11;72.45;;;27.13;;
49572;SDS011;35476;52.466;13.364;2022-12-18T04:19:36;71.95;;;27.38;;
49572;SDS011;35476;52.466;13.364;2022-12-18T04:22:01;68.95;;;29.25;;
49572;SDS011;35476;52.466;13.364;2022-12-18T04:24:26;62.95;;;26.67;;
49572;SDS011;35476;52.466;13.364;2022-12-18T04:26:51;78.55;;;28.77;;
49572;SDS011;35476;52.466;13.364;2022-12-18T04:29:17;72.88;;;27.83;;
49572;SDS011;35476;52.466;13.364;2022-12-18T04:31:42;68.22;;;29.42;;
49572;SDS011;35476;52.466;13.364;2022-12-18T04:34:07;76.45;;;29.45;;
49572;SDS011;35476;52.466;13.364;2022-12-18T04:36:32;77.90;;;29.38;;
49572;SDS011;35476;52.466;13.364;2022-12-18T04:38:57;71.25;;;26.50;;
49572;SDS011;35476;52.466;13.364;2022-12-18T04:41:23;68.07;;;26.55;;
49572;SDS011;35476;52.466;13.364;2022-12-18T04:43:48;70.35;;;28.95;;
49572;SDS011;35476;52.466;13.364;2022-12-18T04:46:13;72.55;;;27.13;;
49572;SDS011;35476;52.466;13.364;2022-12-18T04:48:38;63.45;;;27.55;;
49572;SDS011;35476;52.466;13.364;2022-12-18T04:51:04;77.18;;;26.38;;
49572;SDS011;35476;52.466;13.364;2022-12-18T04:53:29;66.32;;;27.38;;
49572;SDS011;35476;52.466;13.364;2022-12-18T04:58:29;60.00;;;25.65;;
49572;SDS011;35476;52.466;13.364;2022-12-18T05:00:54;65.88;;;24.88;;
49572;SDS011;35476;52.466;13.364;2022-12-18T05:03:19;58.45;;;23.25;;
49572;SDS011;35476;52.466;13.364;2022-12-18T05:05:45;54.00;;;22.85;;
49572;SDS011;35476;52.466;13.364;2022-12-18T05:08:10;57.67;;;23.77;;
49572;SDS011;35476;52.466;13.364;2022-12-18T05:10:35;64.63;;;24.43;;
49572;SDS011;35476;52.466;13.364;2022-12-18T05:13:00;64.63;;;24.90;;
49572;SDS011;35476;52.466;13.364;2022-12-18T05:15:29;60.80;;;25.00;;
49572;SDS011;35476;52.466;13.364;2022-12-18T05:17:55;64.38;;;23.65;;
49572;SDS011;35476;52.466;13.364;2022-12-18T05:20:20;53.15;;;23.15;;
49572;SDS011;35476;52.466;13.364;2022-12-18T05:22:45;61.47;;;24.80;;
49572;SDS011;35476;52.466;13.364;2022-12-18T05:25:10;73.55;;;26.23;;
49572;SDS011;35476;52.466;13.364;2022-12-18T05:27:35;61.05;;;23.95;;
49572;SDS011;35476;52.466;13.364;2022-12-18T05:30:01;62.00;;;26.17;;
49572;SDS011;35476;52.466;13.364;2022-12-18T05:32:26;61.50;;;25.05;;
49572;SDS011;35476;52.466;13.364;2022-12-18T05:34:51;68.00;;;25.52;;
49572;SDS011;35476;52.466;13.364;2022-12-18T05:37:16;65.38;;;26.63;;
49572;SDS011;35476;52.466;13.364;2022-12-18T05:39:42;76.72;;;27.08;;
49572;SDS011;35476;52.466;13.364;2022-12-18T05:42:07;71.43;;;27.48;;
49572;SDS011;35476;52.466;13.364;2022-12-18T05:44:32;70.47;;;27.40;;
49572;SDS011;35476;52.466;13.364;2022-12-18T05:46:57;73.73;;;27.57;;
49572;SDS011;35476;52.466;13.364;2022-12-18T05:49:23;71.73;;;29.10;;
49572;SDS011;35476;52.466;13.364;2022-12-18T05:51:48;78.50;;;27.98;;
49572;SDS011;35476;52.466;13.364;2022-12-18T05:54:13;78.00;;;28.33;;
49572;SDS011;35476;52.466;13.364;2022-12-18T05:56:38;71.57;;;25.95;;
49572;SDS011;35476;52.466;13.364;2022-12-18T05:59:03;72.32;;;29.52;;
49572;SDS011;35476;52.466;13.364;2022-12-18T06:01:29;68.60;;;30.17;;
49572;SDS011;35476;52.466;13.364;2022-12-18T06:03:54;75.32;;;29.55;;
49572;SDS011;35476;52.466;13.364;2022-12-18T06:06:21;79.78;;;30.52;;
49572;SDS011;35476;52.466;13.364;2022-12-18T06:08:47;84.70;;;30.77;;
49572;SDS011;35476;52.466;13.364;2022-12-18T06:11:13;75.57;;;26.55;;
49572;SDS011;35476;52.466;13.364;2022-12-18T06:13:38;67.68;;;28.27;;
49572;SDS011;35476;52.466;13.364;2022-12-18T06:16:06;63.83;;;26.27;;
49572;SDS011;35476;52.466;13.364;2022-12-18T06:18:32;75.95;;;29.60;;
49572;SDS011;35476;52.466;13.364;2022-12-18T06:20:58;67.03;;;26.27;;
49572;SDS011;35476;52.466;13.364;2022-12-18T06:23:24;78.80;;;31.13;;
49572;SDS011;35476;52.466;13.364;2022-12-18T06:25:49;77.63;;;28.38;;
49572;SDS011;35476;52.466;13.364;2022-12-18T06:28:14;72.70;;;28.08;;
49572;SDS011;35476;52.466;13.364;2022-12-18T06:30:39;68.35;;;28.17;;
49572;SDS011;35476;52.466;13.364;2022-12-18T06:33:05;68.25;;;29.63;;
49572;SDS011;35476;52.466;13.364;2022-12-18T06:35:31;73.35;;;28.63;;
49572;SDS011;35476;52.466;13.364;2022-12-18T06:37:56;68.53;;;27.40;;
49572;SDS011;35476;52.466;13.364;2022-12-18T06:40:21;69.40;;;30.27;;
49572;SDS011;35476;52.466;13.364;2022-12-18T06:42:46;65.43;;;28.30;;
49572;SDS011;35476;52.466;13.364;2022-12-18T06:45:12;66.40;;;25.63;;
49572;SDS011;35476;52.466;13.364;2022-12-18T06:47:37;67.30;;;27.73;;
49572;SDS011;35476;52.466;13.364;2022-12-18T06:50:02;77.18;;;30.85;;
49572;SDS011;35476;52.466;13.364;2022-12-18T06:52:27;60.33;;;25.30;;
49572;SDS011;35476;52.466;13.364;2022-12-18T06:54:53;71.00;;;27.50;;
49572;SDS011;35476;52.466;13.364;2022-12-18T06:57:18;62.83;;;25.05;;
49572;SDS011;35476;52.466;13.364;2022-12-18T06:59:43;65.72;;;28.20;;
49572;SDS011;35476;52.466;13.364;2022-12-18T07:02:10;59.63;;;26.52;;
49572;SDS011;35476;52.466;13.364;2022-12-18T07:04:35;58.83;;;24.80;;
49572;SDS011;35476;52.466;13.364;2022-12-18T07:07:01;57.60;;;24.63;;
49572;SDS011;35476;52.466;13.364;2022-12-18T07:09:26;61.35;;;22.95;;
49572;SDS011;35476;52.466;13.364;2022-12-18T07:11:51;60.95;;;25.05;;
49572;SDS011;35476;52.466;13.364;2022-12-18T07:14:16;56.75;;;24.27;;
49572;SDS011;35476;52.466;13.364;2022-12-18T07:16:41;53.55;;;23.33;;
49572;SDS011;35476;52.466;13.364;2022-12-18T07:19:07;58.28;;;22.70;;
49572;SDS011;35476;52.466;13.364;2022-12-18T07:21:32;51.83;;;22.08;;
49572;SDS011;35476;52.466;13.364;2022-12-18T07:23:57;48.70;;;20.88;;
49572;SDS011;35476;52.466;13.364;2022-12-18T07:26:22;58.42;;;20.92;;
49572;SDS011;35476;52.466;13.364;2022-12-18T07:28:48;45.75;;;19.98;;
49572;SDS011;35476;52.466;13.364;2022-12-18T07:31:14;47.10;;;21.33;;
49572;SDS011;35476;52.466;13.364;2022-12-18T07:33:40;45.13;;;17.65;;
49572;SDS011;35476;52.466;13.364;2022-12-18T07:36:06;41.50;;;16.95;;
49572;SDS011;35476;52.466;13.364;2022-12-18T07:38:32;42.33;;;19.92;;
49572;SDS011;35476;52.466;13.364;2022-12-18T07:41:04;36.65;;;18.38;;
49572;SDS011;35476;52.466;13.364;2022-12-18T07:43:30;44.53;;;20.52;;
49572;SDS011;35476;52.466;13.364;2022-12-18T07:45:55;50.60;;;22.58;;
49572;SDS011;35476;52.466;13.364;2022-12-18T07:48:20;50.03;;;19.25;;
49572;SDS011;35476;52.466;13.364;2022-12-18T07:50:46;52.95;;;20.70;;
49572;SDS011;35476;52.466;13.364;2022-12-18T07:53:11;55.88;;;23.45;;
49572;SDS011;35476;52.466;13.364;2022-12-18T07:55:36;55.92;;;22.55;;
49572;SDS011;35476;52.466;13.364;2022-12-18T07:58:02;55.08;;;22.67;;
49572;SDS011;35476;52.466;13.364;2022-12-18T08:00:27;54.53;;;25.90;;
49572;SDS011;35476;52.466;13.364;2022-12-18T08:02:52;48.90;;;21.90;;
49572;SDS011;35476;52.466;13.364;2022-12-18T08:05:18;52.20;;;21.00;;
49572;SDS011;35476;52.466;13.364;2022-12-18T08:07:43;57.80;;;23.42;;
49572;SDS011;35476;52.466;13.364;2022-12-18T08:10:08;51.78;;;21.85;;
49572;SDS011;35476;52.466;13.364;2022-12-18T08:12:34;53.25;;;21.05;;
49572;SDS011;35476;52.466;13.364;2022-12-18T08:14:59;50.72;;;22.38;;
49572;SDS011;35476;52.466;13.364;2022-12-18T08:17:24;47.08;;;21.23;;
49572;SDS011;35476;52.466;13.364;2022-12-18T08:19:49;50.67;;;24.75;;
49572;SDS011;35476;52.466;13.364;2022-12-18T08:22:14;54.08;;;22.63;;
49572;SDS011;35476;52.466;13.364;2022-12-18T08:24:40;52.92;;;23.10;;
49572;SDS011;35476;52.466;13.364;2022-12-18T08:27:05;45.25;;;21.85;;
49572;SDS011;35476;52.466;13.364;2022-12-18T08:29:30;53.30;;;22.67;;
49572;SDS011;35476;52.466;13.364;2022-12-18T08:31:56;50.15;;;20.30;;
49572;SDS011;35476;52.466;13.364;2022-12-18T08:34:21;45.03;;;22.20;;
49572;SDS011;35476;52.466;13.364;2022-12-18T08:36:47;59.70;;;22.85;;
49572;SDS011;35476;52.466;13.364;2022-12-18T08:39:12;45.50;;;20.37;;
49572;SDS011;35476;52.466;13.364;2022-12-18T08:41:37;46.35;;;21.58;;
49572;SDS011;35476;52.466;13.364;2022-12-18T08:44:02;50.67;;;22.38;;
49572;SDS011;35476;52.466;13.364;2022-12-18T08:46:46;61.67;;;23.33;;
49572;SDS011;35476;52.466;13.364;2022-12-18T08:49:11;49.20;;;20.05;;
49572;SDS011;35476;52.466;13.364;2022-12-18T08:51:37;47.20;;;20.48;;
49572;SDS011;35476;52.466;13.364;2022-12-18T08:54:02;45.47;;;20.58;;
49572;SDS011;35476;52.466;13.364;2022-12-18T08:56:28;47.67;;;20.08;;
49572;SDS011;35476;52.466;13.364;2022-12-18T08:58:54;42.85;;;19.95;;
49572;SDS011;35476;52.466;13.364;2022-12-18T09:01:20;39.80;;;15.88;;
49572;SDS011;35476;52.466;13.364;2022-12-18T09:03:45;39.50;;;15.65;;
49572;SDS011;35476;52.466;13.364;2022-12-18T09:06:13;43.50;;;20.38;;
49572;SDS011;35476;52.466;13.364;2022-12-18T09:08:39;46.00;;;19.52;;
49572;SDS011;35476;52.466;13.364;2022-12-18T09:11:04;44.17;;;20.30;;
49572;SDS011;35476;52.466;13.364;2022-12-18T09:13:29;36.22;;;17.95;;
49572;SDS011;35476;52.466;13.364;2022-12-18T09:15:54;42.88;;;18.70;;
49572;SDS011;35476;52.466;13.364;2022-12-18T09:18:21;47.58;;;19.67;;
49572;SDS011;35476;52.466;13.364;2022-12-18T09:20:46;43.95;;;19.33;;
49572;SDS011;35476;52.466;13.364;2022-12-18T09:23:12;39.03;;;18.52;;
49572;SDS011;35476;52.466;13.364;2022-12-18T09:25:38;46.70;;;19.02;;
49572;SDS011;35476;52.466;13.364;2022-12-18T09:28:04;35.42;;;17.52;;
49572;SDS011;35476;52.466;13.364;2022-12-18T09:30:29;38.63;;;18.70;;
49572;SDS011;35476;52.466;13.364;2022-12-18T09:32:54;43.45;;;18.95;;
49572;SDS011;35476;52.466;13.364;2022-12-18T09:35:20;38.08;;;17.60;;
49572;SDS011;35476;52.466;13.364;2022-12-18T09:37:45;45.35;;;18.45;;
49572;SDS011;35476;52.466;13.364;2022-12-18T09:40:14;40.28;;;18.33;;
49572;SDS011;35476;52.466;13.364;2022-12-18T09:42:40;37.85;;;17.58;;
49572;SDS011;35476;52.466;13.364;2022-12-18T09:45:07;36.05;;;17.80;;
49572;SDS011;35476;52.466;13.364;2022-12-18T09:47:36;37.95;;;19.50;;
49572;SDS011;35476;52.466;13.364;2022-12-18T09:50:04;39.40;;;18.13;;
49572;SDS011;35476;52.466;13.364;2022-12-18T09:52:35;39.88;;;18.77;;
49572;SDS011;35476;52.466;13.364;2022-12-18T09:57:26;42.72;;;19.92;;
49572;SDS011;35476;52.466;13.364;2022-12-18T09:59:56;33.78;;;17.23;;
49572;SDS011;35476;52.466;13.364;2022-12-18T10:02:23;39.20;;;20.52;;
49572;SDS011;35476;52.466;13.364;2022-12-18T10:05:10;36.60;;;16.45;;
49572;SDS011;35476;52.466;13.364;2022-12-18T10:07:42;38.78;;;16.80;;
49572;SDS011;35476;52.466;13.364;2022-12-18T10:10:13;25.98;;;12.50;;
49572;SDS011;35476;52.466;13.364;2022-12-18T10:12:59;36.90;;;14.43;;
49572;SDS011;35476;52.466;13.364;2022-12-18T10:15:30;35.42;;;17.58;;
49572;SDS011;35476;52.466;13.364;2022-12-18T10:17:59;38.08;;;18.92;;
49572;SDS011;35476;52.466;13.364;2022-12-18T10:20:44;38.30;;;16.88;;
49572;SDS011;35476;52.466;13.364;2022-12-18T10:25:59;42.60;;;20.10;;
49572;SDS011;35476;52.466;13.364;2022-12-18T10:28:20;39.47;;;17.75;;
49572;SDS011;35476;52.466;13.364;2022-12-18T10:30:46;42.72;;;21.20;;
49572;SDS011;35476;52.466;13.364;2022-12-18T10:33:12;40.00;;;18.75;;
49572;SDS011;35476;52.466;13.364;2022-12-18T10:35:39;47.65;;;18.23;;
49572;SDS011;35476;52.466;13.364;2022-12-18T10:38:27;49.20;;;18.35;;
49572;SDS011;35476;52.466;13.364;2022-12-18T10:46:04;35.75;;;16.35;;
49572;SDS011;35476;52.466;13.364;2022-12-18T10:48:31;43.78;;;21.05;;
49572;SDS011;35476;52.466;13.364;2022-12-18T10:50:57;43.65;;;19.25;;
49572;SDS011;35476;52.466;13.364;2022-12-18T10:53:24;48.72;;;22.48;;
49572;SDS011;35476;52.466;13.364;2022-12-18T10:55:49;40.10;;;20.98;;
49572;SDS011;35476;52.466;13.364;2022-12-18T10:58:21;42.10;;;20.77;;
49572;SDS011;35476;52.466;13.364;2022-12-18T11:01:01;51.58;;;20.92;;
49572;SDS011;35476;52.466;13.364;2022-12-18T11:03:31;39.95;;;18.90;;
49572;SDS011;35476;52.466;13.364;2022-12-18T11:06:16;46.17;;;20.33;;
49572;SDS011;35476;52.466;13.364;2022-12-18T11:08:43;43.00;;;22.15;;
49572;SDS011;35476;52.466;13.364;2022-12-18T11:11:41;38.70;;;20.65;;
49572;SDS011;35476;52.466;13.364;2022-12-18T11:14:05;38.58;;;19.48;;
49572;SDS011;35476;52.466;13.364;2022-12-18T11:16:33;41.67;;;18.73;;
49572;SDS011;35476;52.466;13.364;2022-12-18T11:19:08;40.60;;;19.50;;
49572;SDS011;35476;52.466;13.364;2022-12-18T11:21:41;38.42;;;20.38;;
49572;SDS011;35476;52.466;13.364;2022-12-18T11:24:07;49.67;;;20.10;;
49572;SDS011;35476;52.466;13.364;2022-12-18T11:26:42;49.47;;;19.95;;
49572;SDS011;35476;52.466;13.364;2022-12-18T11:29:09;41.42;;;19.10;;
49572;SDS011;35476;52.466;13.364;2022-12-18T11:31:34;36.42;;;18.65;;
49572;SDS011;35476;52.466;13.364;2022-12-18T11:36:36;34.25;;;16.88;;
49572;SDS011;35476;52.466;13.364;2022-12-18T11:39:07;40.92;;;16.60;;
49572;SDS011;35476;52.466;13.364;2022-12-18T11:41:36;37.30;;;19.75;;
49572;SDS011;35476;52.466;13.364;2022-12-18T11:44:24;34.33;;;15.15;;
49572;SDS011;35476;52.466;13.364;2022-12-18T11:47:01;38.38;;;16.80;;
49572;SDS011;35476;52.466;13.364;2022-12-18T11:49:34;37.67;;;18.42;;
49572;SDS011;35476;52.466;13.364;2022-12-18T11:52:01;35.20;;;17.23;;
49572;SDS011;35476;52.466;13.364;2022-12-18T11:54:28;34.78;;;18.55;;
49572;SDS011;35476;52.466;13.364;2022-12-18T11:56:55;37.75;;;15.82;;
49572;SDS011;35476;52.466;13.364;2022-12-18T12:04:50;32.55;;;15.57;;
49572;SDS011;35476;52.466;13.364;2022-12-18T12:10:06;37.60;;;17.47;;
49572;SDS011;35476;52.466;13.364;2022-12-18T12:15:24;38.05;;;17.45;;
49572;SDS011;35476;52.466;13.364;2022-12-18T12:20:30;36.33;;;17.63;;
49572;SDS011;35476;52.466;13.364;2022-12-18T12:33:51;34.70;;;17.42;;
49572;SDS011;35476;52.466;13.364;2022-12-18T12:38:52;37.10;;;18.67;;
49572;SDS011;35476;52.466;13.364;2022-12-18T12:41:26;34.25;;;16.00;;
49572;SDS011;35476;52.466;13.364;2022-12-18T12:44:15;34.15;;;18.20;;
49572;SDS011;35476;52.466;13.364;2022-12-18T12:46:42;39.92;;;17.95;;
49572;SDS011;35476;52.466;13.364;2022-12-18T12:49:20;32.15;;;17.52;;
49572;SDS011;35476;52.466;13.364;2022-12-18T12:51:57;36.20;;;19.27;;
49572;SDS011;35476;52.466;13.364;2022-12-18T12:54:24;43.40;;;21.10;;
49572;SDS011;35476;52.466;13.364;2022-12-18T12:59:19;34.58;;;18.27;;
49572;SDS011;35476;52.466;13.364;2022-12-18T13:02:10;37.95;;;18.65;;
49572;SDS011;35476;52.466;13.364;2022-12-18T13:04:42;27.42;;;15.45;;
49572;SDS011;35476;52.466;13.364;2022-12-18T13:12:28;37.58;;;17.45;;
49572;SDS011;35476;52.466;13.364;2022-12-18T13:20:36;36.97;;;17.20;;
49572;SDS011;35476;52.466;13.364;2022-12-18T13:23:18;33.80;;;17.70;;
49572;SDS011;35476;52.466;13.364;2022-12-18T13:25:43;29.67;;;16.90;;
49572;SDS011;35476;52.466;13.364;2022-12-18T13:38:22;33.78;;;17.98;;
49572;SDS011;35476;52.466;13.364;2022-12-18T13:43:19;36.20;;;18.50;;
49572;SDS011;35476;52.466;13.364;2022-12-18T13:45:49;31.10;;;17.08;;
49572;SDS011;35476;52.466;13.364;2022-12-18T13:48:19;34.40;;;18.60;;
49572;SDS011;35476;52.466;13.364;2022-12-18T13:50:48;31.48;;;16.55;;
49572;SDS011;35476;52.466;13.364;2022-12-18T13:53:20;38.63;;;18.77;;
49572;SDS011;35476;52.466;13.364;2022-12-18T13:55:46;38.40;;;18.83;;
49572;SDS011;35476;52.466;13.364;2022-12-18T13:58:12;34.17;;;19.23;;
49572;SDS011;35476;52.466;13.364;2022-12-18T14:00:40;28.33;;;17.38;;
49572;SDS011;35476;52.466;13.364;2022-12-18T14:03:16;35.72;;;19.13;;
49572;SDS011;35476;52.466;13.364;2022-12-18T14:05:43;40.50;;;22.23;;
49572;SDS011;35476;52.466;13.364;2022-12-18T14:08:13;42.63;;;23.90;;
49572;SDS011;35476;52.466;13.364;2022-12-18T14:10:42;40.30;;;19.70;;
49572;SDS011;35476;52.466;13.364;2022-12-18T14:13:09;47.03;;;26.52;;
49572;SDS011;35476;52.466;13.364;2022-12-18T14:15:35;37.03;;;21.65;;
49572;SDS011;35476;52.466;13.364;2022-12-18T14:20:39;45.78;;;25.20;;
49572;SDS011;35476;52.466;13.364;2022-12-18T14:23:24;53.10;;;26.90;;
49572;SDS011;35476;52.466;13.364;2022-12-18T14:25:49;55.15;;;28.42;;
49572;SDS011;35476;52.466;13.364;2022-12-18T14:28:14;45.13;;;25.98;;
49572;SDS011;35476;52.466;13.364;2022-12-18T14:30:41;49.92;;;25.63;;
49572;SDS011;35476;52.466;13.364;2022-12-18T14:35:36;48.47;;;24.63;;
49572;SDS011;35476;52.466;13.364;2022-12-18T14:38:36;50.30;;;24.52;;
49572;SDS011;35476;52.466;13.364;2022-12-18T14:43:23;41.03;;;20.73;;
49572;SDS011;35476;52.466;13.364;2022-12-18T14:45:49;37.22;;;19.27;;
49572;SDS011;35476;52.466;13.364;2022-12-18T14:48:19;44.95;;;19.55;;
49572;SDS011;35476;52.466;13.364;2022-12-18T14:50:45;33.78;;;18.85;;
49572;SDS011;35476;52.466;13.364;2022-12-18T14:53:20;38.88;;;21.58;;
49572;SDS011;35476;52.466;13.364;2022-12-18T14:55:46;37.78;;;20.15;;
49572;SDS011;35476;52.466;13.364;2022-12-18T14:58:12;34.72;;;18.55;;
49572;SDS011;35476;52.466;13.364;2022-12-18T15:00:40;33.28;;;20.58;;
49572;SDS011;35476;52.466;13.364;2022-12-18T15:03:06;34.28;;;18.73;;
49572;SDS011;35476;52.466;13.364;2022-12-18T15:05:32;35.15;;;18.27;;
49572;SDS011;35476;52.466;13.364;2022-12-18T15:07:59;29.52;;;15.85;;
49572;SDS011;35476;52.466;13.364;2022-12-18T15:10:25;29.85;;;18.23;;
49572;SDS011;35476;52.466;13.364;2022-12-18T15:20:31;19.23;;;10.90;;
49572;SDS011;35476;52.466;13.364;2022-12-18T15:22:57;29.95;;;14.45;;
49572;SDS011;35476;52.466;13.364;2022-12-18T15:27:51;24.20;;;13.73;;
49572;SDS011;35476;52.466;13.364;2022-12-18T15:30:17;25.98;;;13.70;;
49572;SDS011;35476;52.466;13.364;2022-12-18T15:32:43;23.33;;;11.10;;
49572;SDS011;35476;52.466;13.364;2022-12-18T15:35:23;25.48;;;13.10;;
49572;SDS011;35476;52.466;13.364;2022-12-18T15:37:49;24.13;;;14.13;;
49572;SDS011;35476;52.466;13.364;2022-12-18T15:40:15;31.90;;;16.02;;
49572;SDS011;35476;52.466;13.364;2022-12-18T15:42:41;27.75;;;15.30;;
49572;SDS011;35476;52.466;13.364;2022-12-18T15:45:25;27.45;;;15.60;;
49572;SDS011;35476;52.466;13.364;2022-12-18T15:47:51;22.33;;;13.23;;
49572;SDS011;35476;52.466;13.364;2022-12-18T15:50:16;28.48;;;13.68;;
49572;SDS011;35476;52.466;13.364;2022-12-18T15:52:42;24.02;;;15.65;;
49572;SDS011;35476;52.466;13.364;2022-12-18T15:55:18;26.88;;;15.23;;
49572;SDS011;35476;52.466;13.364;2022-12-18T15:58:02;29.40;;;15.40;;
49572;SDS011;35476;52.466;13.364;2022-12-18T16:00:28;26.48;;;14.73;;
49572;SDS011;35476;52.466;13.364;2022-12-18T16:02:53;35.47;;;14.90;;
49572;SDS011;35476;52.466;13.364;2022-12-18T16:05:19;26.90;;;13.80;;
49572;SDS011;35476;52.466;13.364;2022-12-18T16:07:45;29.92;;;16.08;;
49572;SDS011;35476;52.466;13.364;2022-12-18T16:10:10;29.30;;;13.82;;